Time;durP1;ratioP1;P1;durP2;ratioP2;P2;SDS_P1;SDS_P2;PMS_P1;PMS_P2;Temp;Humidity;BMP_temperature;BMP_pressure;BME280_temperature;BME280_humidity;BME280_pressure;Samples;Min_cycle;Max_cycle;Signal;HPM_P1;HPM_P2
2022/04/17 00:03:34;;;;;;;;;;;;;;;19.75;30.58;96786.16;10477733;28;1475;-55
2022/04/17 00:08:35;;;;;;;;;;;;;;;19.74;30.67;96784.59;10480790;28;1587;-53
2022/04/17 00:13:36;;;;;;;;;;;;;;;19.73;30.74;96778.53;10480956;28;1902;-53
2022/04/17 00:18:37;;;;;;;;;;;;;;;19.72;30.70;96768.25;10481017;28;1539;-56
2022/04/17 00:23:38;;;;;;;;;;;;;;;19.72;30.85;96768.25;10474288;28;1538;-55
2022/04/17 00:28:39;;;;;;;;;;;;;;;19.71;30.69;96764.81;10484247;28;2086;-56
2022/04/17 00:33:39;;;;;;;;;;;;;;;19.70;30.70;96762.44;10474756;28;2075;-57
2022/04/17 00:38:40;;;;;;;;;;;;;;;19.70;30.69;96765.84;10485684;28;1943;-57
2022/04/17 00:43:48;;;;;;;;;;;;;;;19.69;30.82;96753.75;10478359;28;1979;-58
2022/04/17 00:48:48;;;;;;;;;;;;;;;19.68;30.55;96752.16;10483401;28;1873;-58
2022/04/17 00:53:49;;;;;;;;;;;;;;;19.68;30.50;96754.00;10480501;28;1925;-58
2022/04/17 00:58:49;;;;;;;;;;;;;;;19.68;30.46;96746.88;10456475;28;1911;-56
2022/04/17 01:03:50;;;;;;;;;;;;;;;19.67;30.56;96750.56;10480796;28;1901;-54
2022/04/17 01:08:52;;;;;;;;;;;;;;;19.67;30.69;96733.97;10482960;28;1873;-56
2022/04/17 01:13:55;;;;;;;;;;;;;;;19.67;30.55;96736.63;10476627;28;1973;-57
2022/04/17 01:18:56;;;;;;;;;;;;;;;19.66;30.49;96743.69;10483238;28;1889;-54
2022/04/17 01:29:27;;;;;;;;;;;;;;;19.64;30.36;96726.59;10480214;28;2469;-56
2022/04/17 01:34:28;;;;;;;;;;;;;;;19.64;30.56;96723.97;10475335;28;1969;-58
2022/04/17 01:39:28;;;;;;;;;;;;;;;19.65;30.51;96717.66;10475655;28;1940;-57
2022/04/17 01:44:29;;;;;;;;;;;;;;;19.63;30.46;96715.28;10475918;28;1878;-54
2022/04/17 01:49:29;;;;;;;;;;;;;;;19.62;30.52;96715.53;10480036;28;1952;-58
2022/04/17 01:54:32;;;;;;;;;;;;;;;19.61;30.47;96706.03;10479734;28;1946;-59
2022/04/17 01:59:32;;;;;;;;;;;;;;;19.60;30.34;96705.22;10473782;28;1945;-58
2022/04/17 02:04:35;;;;;;;;;;;;;;;19.58;30.37;96702.03;10479351;28;1790;-54
2022/04/17 02:09:37;;;;;;;;;;;;;;;19.58;30.31;96688.91;10478423;28;1909;-57
2022/04/17 02:14:38;;;;;;;;;;;;;;;19.58;30.40;96690.75;10476556;28;1805;-56
2022/04/17 02:19:38;;;;;;;;;;;;;;;19.58;30.33;96685.50;10477416;28;2325;-55
2022/04/17 02:24:38;;;;;;;;;;;;;;;19.56;30.26;96679.69;10474903;28;2259;-56
2022/04/17 02:29:39;;;;;;;;;;;;;;;19.54;30.23;96671.25;10479377;28;1973;-55
2022/04/17 02:34:39;;;;;;;;;;;;;;;19.55;30.26;96675.44;10471983;28;1720;-55
2022/04/17 02:39:39;;;;;;;;;;;;;;;19.52;30.24;96671.47;10478928;28;1728;-57
2022/04/17 02:44:40;;;;;;;;;;;;;;;19.53;30.25;96677.53;10470652;28;1443;-55
2022/04/17 02:49:40;;;;;;;;;;;;;;;19.52;30.18;96675.91;10480858;28;1910;-56
2022/04/17 02:54:41;;;;;;;;;;;;;;;19.51;30.12;96663.81;10480547;28;1490;-53
2022/04/17 02:59:41;;;;;;;;;;;;;;;19.51;30.15;96663.81;10478151;28;1550;-58
2022/04/17 03:10:02;;;;;;;;;;;;;;;19.49;30.18;96654.34;10481434;28;1977;-56
2022/04/17 03:15:02;;;;;;;;;;;;;;;19.48;30.27;96658.03;10484523;28;1450;-58
2022/04/17 03:20:03;;;;;;;;;;;;;;;19.47;30.15;96651.16;10488221;28;1490;-53
2022/04/17 03:25:04;;;;;;;;;;;;;;;19.47;30.08;96645.91;10481535;28;1453;-57
2022/04/17 03:30:05;;;;;;;;;;;;;;;19.46;30.13;96643.53;10485493;28;1968;-56
2022/04/17 03:35:06;;;;;;;;;;;;;;;19.44;29.94;96651.66;10481419;28;1494;-56
2022/04/17 03:40:06;;;;;;;;;;;;;;;19.45;30.09;96639.31;10500777;28;1514;-56
2022/04/17 03:45:08;;;;;;;;;;;;;;;19.45;30.09;96636.69;10480614;28;1571;-57
2022/04/17 03:50:08;;;;;;;;;;;;;;;19.43;30.02;96641.41;10484540;28;1922;-57
2022/04/17 03:55:09;;;;;;;;;;;;;;;19.44;29.94;96633.25;10487038;28;1459;-56
2022/04/17 04:00:10;;;;;;;;;;;;;;;19.41;29.89;96631.09;10483513;28;1536;-54
2022/04/17 04:05:10;;;;;;;;;;;;;;;19.40;29.94;96637.41;10488021;28;1425;-55
2022/04/17 04:10:12;;;;;;;;;;;;;;;19.40;29.95;96641.88;10487649;28;1973;-53
2022/04/17 04:15:12;;;;;;;;;;;;;;;19.39;30.00;96637.66;10481938;28;1403;-56
2022/04/17 04:20:12;;;;;;;;;;;;;;;19.38;29.90;96642.13;10485121;28;1585;-56
2022/04/17 04:25:13;;;;;;;;;;;;;;;19.38;29.87;96641.31;10478452;28;1473;-57
2022/04/17 04:30:13;;;;;;;;;;;;;;;19.37;29.94;96648.41;10498817;28;1910;-57
2022/04/17 04:35:13;;;;;;;;;;;;;;;19.37;29.87;96645.78;10478873;28;1826;-58
2022/04/17 04:40:14;;;;;;;;;;;;;;;19.36;29.73;96638.94;10481901;28;1462;-57
2022/04/17 04:50:33;;;;;;;;;;;;;;;19.35;30.01;96642.59;10487764;28;1965;-55
2022/04/17 04:55:34;;;;;;;;;;;;;;;19.35;29.85;96636.56;10479419;28;1501;-54
2022/04/17 05:00:34;;;;;;;;;;;;;;;19.35;29.94;96633.94;10483098;28;1787;-55
2022/04/17 05:05:35;;;;;;;;;;;;;;;19.35;29.98;96633.94;10482788;28;1473;-54
2022/04/17 05:10:35;;;;;;;;;;;;;;;19.33;29.74;96633.34;10499031;22;1942;-38
2022/04/17 05:15:35;;;;;;;;;;;;;;;19.32;29.77;96632.56;10486607;28;1568;-38
2022/04/17 05:20:36;;;;;;;;;;;;;;;19.32;29.67;96640.44;10453694;28;1451;-37
2022/04/17 05:25:36;;;;;;;;;;;;;;;19.31;29.82;96630.16;10434218;28;1434;-39
2022/04/17 05:30:36;;;;;;;;;;;;;;;19.33;29.82;96655.19;10434442;28;1910;-40
2022/04/17 05:35:37;;;;;;;;;;;;;;;19.32;29.75;96647.53;10430387;28;1552;-41
2022/04/17 05:40:38;;;;;;;;;;;;;;;19.31;29.74;96638.84;10430401;28;1797;-41
2022/04/17 05:45:38;;;;;;;;;;;;;;;19.32;29.74;96635.19;10434422;28;1501;-46
2022/04/17 05:50:40;;;;;;;;;;;;;;;19.31;29.84;96633.56;10430809;28;1918;-43
2022/04/17 05:55:41;;;;;;;;;;;;;;;19.32;30.08;96639.63;10432980;28;1577;-44
2022/04/17 06:00:43;;;;;;;;;;;;;;;19.30;29.96;96634.63;10435514;28;2077;-41
2022/04/17 06:05:43;;;;;;;;;;;;;;;19.30;30.02;96639.09;10432183;28;1446;-41
2022/04/17 06:10:44;;;;;;;;;;;;;;;19.31;30.26;96640.66;10459971;28;1902;-38
2022/04/17 06:15:44;;;;;;;;;;;;;;;19.30;30.23;96642.53;10431864;28;1502;-39
2022/04/17 06:20:44;;;;;;;;;;;;;;;19.31;30.56;96638.84;10432891;28;1385;-39
2022/04/17 06:25:45;;;;;;;;;;;;;;;19.30;30.42;96645.16;10431866;28;1502;-40
2022/04/17 06:30:46;;;;;;;;;;;;;;;19.31;30.38;96645.91;10432708;28;1906;-44
2022/04/17 06:35:46;;;;;;;;;;;;;;;19.30;30.51;96645.16;10431094;28;2124;-39
2022/04/17 06:40:47;;;;;;;;;;;;;;;19.29;30.50;96640.91;10427041;28;1784;-40
2022/04/17 06:45:47;;;;;;;;;;;;;;;19.27;30.48;96640.34;10432715;28;1944;-38
2022/04/17 06:50:49;;;;;;;;;;;;;;;19.28;30.50;96638.53;10431585;28;1922;-38
2022/04/17 06:55:49;;;;;;;;;;;;;;;19.25;30.49;96639.00;10431926;28;1472;-39
2022/04/17 07:00:49;;;;;;;;;;;;;;;19.26;30.30;96636.16;10428491;28;1527;-39
2022/04/17 07:05:50;;;;;;;;;;;;;;;19.24;30.45;96640.06;10429173;28;1563;-41
2022/04/17 07:10:51;;;;;;;;;;;;;;;19.24;30.36;96640.06;10425734;28;1922;-40
2022/04/17 07:15:51;;;;;;;;;;;;;;;19.24;30.31;96642.69;10429939;28;1546;-42
2022/04/17 07:20:52;;;;;;;;;;;;;;;19.23;30.50;96644.50;10432795;28;1450;-43
2022/04/17 07:25:53;;;;;;;;;;;;;;;19.24;30.39;96640.06;10430431;28;1484;-40
2022/04/17 07:30:53;;;;;;;;;;;;;;;19.23;30.52;96641.88;10430260;28;1975;-40
2022/04/17 07:35:54;;;;;;;;;;;;;;;19.22;30.62;96642.94;10428110;28;1567;-38
2022/04/17 07:40:54;;;;;;;;;;;;;;;19.22;30.66;96642.94;10430462;28;1490;-38
2022/04/17 07:45:54;;;;;;;;;;;;;;;19.21;30.75;96636.06;10430046;28;2182;-38
2022/04/17 07:50:55;;;;;;;;;;;;;;;19.22;30.66;96642.94;10411805;28;2318;-42
2022/04/17 07:55:56;;;;;;;;;;;;;;;19.21;30.60;96632.66;10426222;28;1691;-42
2022/04/17 08:00:59;;;;;;;;;;;;;;;19.20;30.77;96628.44;10438445;28;1543;-39
2022/04/17 08:06:00;;;;;;;;;;;;;;;19.21;30.75;96624.75;10454880;28;3083;-39
2022/04/17 08:11:01;;;;;;;;;;;;;;;19.20;30.66;96623.19;10434551;28;1906;-44
2022/04/17 08:16:02;;;;;;;;;;;;;;;19.19;30.90;96622.38;10437228;28;1458;-39
2022/04/17 08:21:03;;;;;;;;;;;;;;;19.20;30.77;96608.22;10433045;28;1448;-39
2022/04/17 08:26:07;;;;;;;;;;;;;;;19.21;31.00;96609.78;10439185;28;1570;-39
2022/04/17 08:31:10;;;;;;;;;;;;;;;19.21;30.96;96606.38;10432886;28;1988;-40
2022/04/17 08:36:12;;;;;;;;;;;;;;;19.21;31.43;96615.06;10436610;28;1498;-38
2022/04/17 08:41:13;;;;;;;;;;;;;;;19.20;31.10;96600.34;10437544;28;1503;-39
2022/04/17 08:46:13;;;;;;;;;;;;;;;19.20;30.97;96592.44;10437095;28;1509;-39
2022/04/17 08:51:14;;;;;;;;;;;;;;;19.19;31.12;96596.09;10433672;28;2006;-40
2022/04/17 08:56:14;;;;;;;;;;;;;;;19.19;31.08;96584.78;10428823;28;1559;-41
2022/04/17 09:01:17;;;;;;;;;;;;;;;19.19;31.13;96585.59;10436468;28;1473;-40
2022/04/17 09:06:20;;;;;;;;;;;;;;;19.18;31.20;96576.13;10434761;28;1518;-39
2022/04/17 09:11:24;;;;;;;;;;;;;;;19.18;31.15;96568.25;10395726;28;1144376;-39
2022/04/17 09:16:27;;;;;;;;;;;;;;;19.18;31.03;96565.63;10437353;28;1782;-39
2022/04/17 09:21:34;;;;;;;;;;;;;;;19.19;31.19;96569.81;10432643;28;1388;-42
2022/04/17 09:26:34;;;;;;;;;;;;;;;19.19;31.00;96554.06;10437895;28;1412;-41
2022/04/17 09:31:34;;;;;;;;;;;;;;;19.19;31.10;96548.78;10432784;28;1898;-40
2022/04/17 09:36:37;;;;;;;;;;;;;;;19.19;31.14;96535.66;10431629;28;1599;-39
2022/04/17 09:41:50;;;;;;;;;;;;;;;19.20;31.14;96525.94;10415531;28;1411;-41
2022/04/17 09:46:57;;;;;;;;;;;;;;;19.22;30.84;96522.03;10432590;28;1389;-43
2022/04/17 09:52:07;;;;;;;;;;;;;;;19.22;30.90;96521.22;10436361;28;1906;-45
2022/04/17 09:57:08;;;;;;;;;;;;;;;19.21;31.06;96509.13;10439314;28;1999;-40
2022/04/17 10:02:08;;;;;;;;;;;;;;;19.21;30.83;96507.28;10433084;28;1447;-45
2022/04/17 10:07:09;;;;;;;;;;;;;;;19.21;30.52;96494.16;10430820;28;1451;-39
2022/04/17 10:12:11;;;;;;;;;;;;;;;19.23;30.72;96492.06;10434597;28;1913;-39
2022/04/17 10:17:11;;;;;;;;;;;;;;;19.24;30.84;96477.09;10433715;28;2533;-39
2022/04/17 10:22:12;;;;;;;;;;;;;;;19.23;30.87;96465.78;10431827;28;1455;-39
2022/04/17 10:27:14;;;;;;;;;;;;;;;19.25;30.74;96474.22;10433136;28;1510;-41
2022/04/17 10:32:15;;;;;;;;;;;;;;;19.23;30.89;96465.78;10428380;28;1910;-39
2022/04/17 10:37:16;;;;;;;;;;;;;;;19.24;30.96;96459.50;10428604;28;1472;-42
2022/04/17 10:42:16;;;;;;;;;;;;;;;19.24;30.89;96454.25;10423197;28;1545;-43
2022/04/17 10:47:20;;;;;;;;;;;;;;;19.24;30.68;96435.84;10428649;28;1471;-44
2022/04/17 10:52:30;;;;;;;;;;;;;;;19.24;30.83;96424.53;10409612;28;1950;-43
2022/04/17 10:57:30;;;;;;;;;;;;;;;19.24;30.98;96437.66;10431321;28;1464;-44
2022/04/17 11:02:30;;;;;;;;;;;;;;;19.24;30.88;96430.59;10426731;28;1454;-39
2022/04/17 11:07:31;;;;;;;;;;;;;;;19.25;30.78;96436.63;10426585;28;1558;-42
2022/04/17 11:12:31;;;;;;;;;;;;;;;19.24;30.71;96422.69;10425887;28;1909;-43
2022/04/17 11:17:32;;;;;;;;;;;;;;;19.23;30.76;96423.72;10428882;28;1442;-43
2022/04/17 11:22:34;;;;;;;;;;;;;;;19.24;30.72;96412.19;10425726;28;1446;-43
2022/04/17 11:27:45;;;;;;;;;;;;;;;19.23;30.80;96423.72;10427739;28;1447;-42
2022/04/17 11:32:46;;;;;;;;;;;;;;;19.25;30.86;96405.06;10449668;23;1914;-58
2022/04/17 11:37:54;;;;;;;;;;;;;;;19.26;30.83;96410.09;10438504;28;1580;-58
2022/04/17 11:42:54;;;;;;;;;;;;;;;19.26;30.82;96407.47;10440025;28;1565;-56
2022/04/17 11:47:55;;;;;;;;;;;;;;;19.26;30.95;96402.22;10441891;28;1532;-56
2022/04/17 11:52:56;;;;;;;;;;;;;;;19.27;30.89;96397.72;10438587;28;1914;-55
2022/04/17 11:57:57;;;;;;;;;;;;;;;19.27;30.97;96398.53;10443875;28;1551;-54
2022/04/17 12:03:01;;;;;;;;;;;;;;;19.25;30.86;96390.09;10440457;28;1456;-53
2022/04/17 12:08:11;;;;;;;;;;;;;;;19.28;30.88;96373.03;10444274;28;1492;-56
2022/04/17 12:13:18;;;;;;;;;;;;;;;19.26;30.79;96375.13;10456520;28;1972;-57
2022/04/17 12:18:19;;;;;;;;;;;;;;;19.26;30.71;96365.41;10444848;28;1518;-53
2022/04/17 12:23:20;;;;;;;;;;;;;;;19.26;30.74;96369.88;10443621;28;1498;-55
2022/04/17 12:28:21;;;;;;;;;;;;;;;19.25;30.89;96363.03;10437689;28;1452;-58
2022/04/17 12:33:25;;;;;;;;;;;;;;;19.27;30.72;96355.69;10440999;28;1969;-56
2022/04/17 12:38:25;;;;;;;;;;;;;;;19.25;30.81;96347.25;10440241;28;1784;-59
2022/04/17 12:43:32;;;;;;;;;;;;;;;19.25;30.81;96349.88;10439044;28;1501;-57
2022/04/17 12:48:34;;;;;;;;;;;;;;;19.26;30.82;96336.50;10439308;28;1586;-57
2022/04/17 12:53:39;;;;;;;;;;;;;;;19.25;30.78;96321.75;10439209;28;1914;-57
2022/04/17 12:58:46;;;;;;;;;;;;;;;19.26;30.59;96318.09;10439354;28;1472;-57
2022/04/17 13:03:48;;;;;;;;;;;;;;;19.27;30.62;96314.41;10442144;28;1503;-58
2022/04/17 13:09:23;;;;;;;;;;;;;;;19.27;30.64;96309.16;10440337;28;1676;-57
2022/04/17 13:14:23;;;;;;;;;;;;;;;19.25;30.57;96306.00;10421308;28;1906;-57
2022/04/17 13:19:27;;;;;;;;;;;;;;;19.26;30.58;96307.59;10438771;28;1508;-58
2022/04/17 13:24:29;;;;;;;;;;;;;;;19.26;30.50;96309.41;10444706;28;1455;-56
2022/04/17 13:29:29;;;;;;;;;;;;;;;19.27;30.48;96314.41;10438746;28;1431;-55
2022/04/17 13:34:33;;;;;;;;;;;;;;;19.25;30.44;96300.75;10443273;28;2138;-58
2022/04/17 13:39:33;;;;;;;;;;;;;;;19.26;30.59;96297.09;10437284;28;1559;-58
2022/04/17 13:44:34;;;;;;;;;;;;;;;19.25;30.38;96292.84;10438164;28;1490;-58
2022/04/17 13:49:35;;;;;;;;;;;;;;;19.24;30.47;96298.38;10438918;28;1683;-57
2022/04/17 13:54:35;;;;;;;;;;;;;;;19.22;30.53;96282.84;10435423;28;1918;-59
2022/04/17 13:59:36;;;;;;;;;;;;;;;19.23;30.47;96278.38;10434429;28;1457;-56
2022/04/17 14:04:37;;;;;;;;;;;;;;;19.23;30.40;96266.03;10437791;28;1716;-59
2022/04/17 14:09:41;;;;;;;;;;;;;;;19.22;30.38;96256.56;10423031;28;1524;-54
2022/04/17 14:14:42;;;;;;;;;;;;;;;19.21;30.31;96254.97;10440086;28;1948;-58
2022/04/17 14:19:42;;;;;;;;;;;;;;;19.21;30.68;96243.66;10440149;28;1511;-55
2022/04/17 14:24:42;;;;;;;;;;;;;;;19.20;30.44;96244.72;10434554;28;1508;-53
2022/04/17 14:29:43;;;;;;;;;;;;;;;19.20;30.38;96239.47;10433822;28;1448;-54
2022/04/17 14:34:45;;;;;;;;;;;;;;;19.20;30.42;96240.28;10436050;28;2028;-57
2022/04/17 14:39:45;;;;;;;;;;;;;;;19.18;30.31;96241.56;10430984;28;1598;-54
2022/04/17 14:44:46;;;;;;;;;;;;;;;19.17;30.24;96234.72;10433261;28;1559;-55
2022/04/17 14:49:46;;;;;;;;;;;;;;;19.14;30.35;96230.78;10433416;28;2103;-56
2022/04/17 14:54:46;;;;;;;;;;;;;;;19.13;30.41;96229.16;10433687;28;1965;-57
2022/04/17 14:59:46;;;;;;;;;;;;;;;19.16;30.18;96233.94;10437400;28;1516;-56
2022/04/17 15:04:47;;;;;;;;;;;;;;;19.12;30.51;96232.84;10439719;28;1797;-56
2022/04/17 15:09:47;;;;;;;;;;;;;;;19.15;30.39;96226.28;10440472;28;1514;-57
2022/04/17 15:14:47;;;;;;;;;;;;;;;19.13;30.37;96229.16;10426357;28;2009;-57
2022/04/17 15:19:47;;;;;;;;;;;;;;;19.11;30.28;96215.50;10431262;28;2044;-56
2022/04/17 15:24:48;;;;;;;;;;;;;;;19.11;30.41;96197.09;10431008;28;1559;-56
2022/04/17 15:29:50;;;;;;;;;;;;;;;19.13;30.45;96192.38;10433406;28;1514;-58
2022/04/17 15:34:50;;;;;;;;;;;;;;;19.11;30.46;96191.84;10426420;28;1959;-56
2022/04/17 15:39:51;;;;;;;;;;;;;;;19.11;30.39;96183.16;10436955;28;1475;-55
2022/04/17 15:50:10;;;;;;;;;;;;;;;19.10;30.37;96169.22;10435741;28;1902;-57
2022/04/17 15:55:10;;;;;;;;;;;;;;;19.07;30.45;96177.63;10431869;28;1460;-56
2022/04/17 16:00:12;;;;;;;;;;;;;;;19.05;30.27;96163.97;10434782;28;1492;-58
2022/04/17 16:05:12;;;;;;;;;;;;;;;19.05;30.38;96168.41;10432015;28;1752;-56
2022/04/17 16:10:14;;;;;;;;;;;;;;;19.04;30.18;96159.72;10434983;28;1918;-58
2022/04/17 16:15:14;;;;;;;;;;;;;;;19.03;30.33;96154.75;10411265;28;1515;-58
2022/04/17 16:20:14;;;;;;;;;;;;;;;18.99;30.41;96153.66;10432971;28;1460;-59
2022/04/17 16:25:16;;;;;;;;;;;;;;;19.03;30.19;96150.28;10436040;28;1515;-56
2022/04/17 16:30:17;;;;;;;;;;;;;;;19.02;30.26;96140.81;10444508;28;1894;-53
2022/04/17 16:35:17;;;;;;;;;;;;;;;18.98;30.33;96142.34;10430881;28;1459;-56
2022/04/17 16:40:17;;;;;;;;;;;;;;;19.00;30.16;96134.25;10455597;28;1647;-57
2022/04/17 16:45:18;;;;;;;;;;;;;;;18.95;30.31;96132.38;10430481;28;1655;-56
2022/04/17 16:50:18;;;;;;;;;;;;;;;19.00;30.09;96134.25;10440531;28;2028;-56
2022/04/17 16:55:21;;;;;;;;;;;;;;;18.99;30.18;96133.44;10435682;28;1425;-55
2022/04/17 17:00:21;;;;;;;;;;;;;;;19.00;30.07;96131.63;10442583;28;1768;-57
2022/04/17 17:05:22;;;;;;;;;;;;;;;18.93;30.16;96136.28;10437259;28;1499;-56
2022/04/17 17:10:22;;;;;;;;;;;;;;;18.91;30.14;96133.91;10443151;28;1914;-59
2022/04/17 17:15:23;;;;;;;;;;;;;;;18.91;30.16;96133.91;10431183;28;1546;-58
2022/04/17 17:20:23;;;;;;;;;;;;;;;18.90;30.23;96142.06;10440042;28;1558;-55
2022/04/17 17:25:24;;;;;;;;;;;;;;;18.90;30.15;96140.22;10436215;28;1454;-58
2022/04/17 17:30:24;;;;;;;;;;;;;;;18.88;30.15;96134.41;10433932;28;1898;-60
2022/04/17 17:35:25;;;;;;;;;;;;;;;18.87;30.26;96130.22;10426199;28;1544;-58
2022/04/17 17:40:26;;;;;;;;;;;;;;;18.86;30.28;96135.69;10439192;28;1567;-57
2022/04/17 17:45:27;;;;;;;;;;;;;;;18.89;30.14;96138.63;10433751;28;1440;-57
2022/04/17 17:50:27;;;;;;;;;;;;;;;18.85;30.24;96131.50;10438991;28;1965;-57
2022/04/17 17:55:27;;;;;;;;;;;;;;;18.86;30.26;96135.69;10435729;28;1580;-59
2022/04/17 18:00:32;;;;;;;;;;;;;;;18.86;30.12;96127.81;10439207;28;1587;-54
2022/04/17 18:05:32;;;;;;;;;;;;;;;18.83;30.21;96134.41;10434265;28;1476;-55
2022/04/17 18:15:52;;;;;;;;;;;;;;;18.83;30.09;96131.78;10431846;28;1455;-55
2022/04/17 18:20:52;;;;;;;;;;;;;;;18.86;30.19;96127.81;10434397;28;1666;-57
2022/04/17 18:25:53;;;;;;;;;;;;;;;18.81;30.29;96125.97;10435427;28;1488;-59
2022/04/17 18:30:54;;;;;;;;;;;;;;;18.80;30.29;96132.25;10430097;28;1969;-57
2022/04/17 18:35:56;;;;;;;;;;;;;;;18.81;30.20;96130.44;10423609;28;2574;-59
2022/04/17 18:40:56;;;;;;;;;;;;;;;18.78;30.33;96130.94;10439219;28;1515;-57
2022/04/17 18:46:00;;;;;;;;;;;;;;;18.78;30.07;96123.06;10433347;28;1531;-59
2022/04/17 18:51:00;;;;;;;;;;;;;;;18.77;30.30;96124.91;10439440;28;1918;-59
2022/04/17 18:56:00;;;;;;;;;;;;;;;18.79;30.22;96117.56;10439795;28;1472;-56
2022/04/17 19:01:01;;;;;;;;;;;;;;;18.76;30.28;96118.06;10436850;28;1515;-54
2022/04/17 19:06:01;;;;;;;;;;;;;;;18.77;30.08;96122.28;10432969;28;1404;-58
2022/04/17 19:16:21;;;;;;;;;;;;;;;18.74;30.22;96120.16;10434846;28;1515;-57
2022/04/17 19:21:22;;;;;;;;;;;;;;;18.75;30.32;96124.38;10434775;28;1511;-57
2022/04/17 19:26:22;;;;;;;;;;;;;;;18.75;30.25;96127.00;10471900;22;1998;-42
2022/04/17 19:36:42;;;;;;;;;;;;;;;18.74;30.26;96111.47;10472644;28;1501;-42
2022/04/17 19:41:43;;;;;;;;;;;;;;;18.71;30.30;96115.41;10473211;28;2037;-42
2022/04/17 19:46:46;;;;;;;;;;;;;;;18.75;30.15;96115.69;10469550;28;1870;-43
2022/04/17 19:51:49;;;;;;;;;;;;;;;18.72;30.24;96116.19;10474302;28;1986;-40
2022/04/17 19:56:51;;;;;;;;;;;;;;;18.71;30.24;96110.16;10477257;28;1528;-42
2022/04/17 20:01:51;;;;;;;;;;;;;;;18.72;30.23;96109.09;10479326;28;1412;-43
2022/04/17 20:06:51;;;;;;;;;;;;;;;18.72;30.09;96111.72;10479702;28;1796;-46
2022/04/17 20:11:52;;;;;;;;;;;;;;;18.73;30.15;96112.53;10483145;28;1941;-41
2022/04/17 20:16:52;;;;;;;;;;;;;;;18.68;30.20;96108.81;10480905;28;1983;-41
2022/04/17 20:21:57;;;;;;;;;;;;;;;18.70;30.19;96100.69;10480890;28;1529;-44
2022/04/17 20:27:01;;;;;;;;;;;;;;;18.71;30.16;96107.53;10479548;28;1815;-42
2022/04/17 20:32:02;;;;;;;;;;;;;;;18.69;30.17;96097.25;10477460;28;1970;-40
2022/04/17 20:37:04;;;;;;;;;;;;;;;18.70;30.16;96090.19;10478394;28;1458;-40
2022/04/17 20:42:04;;;;;;;;;;;;;;;18.69;30.15;96086.75;10476487;28;1486;-40
2022/04/17 20:52:24;;;;;;;;;;;;;;;18.68;30.15;96069.44;10473045;28;1906;-41
2022/04/17 20:57:25;;;;;;;;;;;;;;;18.69;30.16;96070.25;10476982;28;1700;-41
2022/04/17 21:02:25;;;;;;;;;;;;;;;18.72;29.98;96058.41;10478644;28;2126;-41
2022/04/17 21:07:25;;;;;;;;;;;;;;;18.67;30.05;96064.41;10478637;28;1888;-41
2022/04/17 21:12:26;;;;;;;;;;;;;;;18.70;30.09;96061.31;10474700;28;1910;-41
2022/04/17 21:17:26;;;;;;;;;;;;;;;18.71;30.07;96056.84;10478235;28;1537;-42
2022/04/17 21:22:26;;;;;;;;;;;;;;;18.68;30.08;96048.44;10475729;28;1540;-43
2022/04/17 21:27:27;;;;;;;;;;;;;;;18.68;30.06;96047.63;10481319;28;1474;-41
2022/04/17 21:32:28;;;;;;;;;;;;;;;18.67;30.10;96048.66;10472847;28;1914;-40
2022/04/17 21:37:28;;;;;;;;;;;;;;;18.69;30.04;96043.97;10475323;28;1465;-39
2022/04/17 21:42:29;;;;;;;;;;;;;;;18.64;30.08;96044.72;10478588;28;1467;-41
2022/04/17 21:47:29;;;;;;;;;;;;;;;18.67;29.99;96038.97;10476655;28;1525;-40
2022/04/17 21:52:30;;;;;;;;;;;;;;;18.68;29.91;96043.19;10477588;28;1908;-40
2022/04/17 21:57:31;;;;;;;;;;;;;;;18.66;29.93;96039.22;10473439;28;1429;-40
2022/04/17 22:07:50;;;;;;;;;;;;;;;18.66;30.02;96037.38;10478449;28;1453;-40
2022/04/17 22:12:51;;;;;;;;;;;;;;;18.65;29.99;96030.53;10476259;28;1918;-42
2022/04/17 22:17:51;;;;;;;;;;;;;;;18.64;30.10;96036.06;10475500;28;1546;-41
2022/04/17 22:22:51;;;;;;;;;;;;;;;18.65;29.89;96033.16;10474848;28;1862;-40
2022/04/17 22:27:52;;;;;;;;;;;;;;;18.65;29.97;96029.75;10478873;28;1527;-39
2022/04/17 22:32:52;;;;;;;;;;;;;;;18.64;29.97;96025.56;10472781;28;1987;-41
2022/04/17 22:37:53;;;;;;;;;;;;;;;18.65;29.84;96016.63;10472755;28;1416;-39
2022/04/17 22:42:53;;;;;;;;;;;;;;;18.62;29.86;96017.16;10473874;28;1723;-40
2022/04/17 22:47:54;;;;;;;;;;;;;;;18.64;29.96;96012.44;10477166;28;1445;-43
2022/04/17 22:52:54;;;;;;;;;;;;;;;18.61;29.91;95994.53;10471706;28;1922;-39
2022/04/17 22:57:55;;;;;;;;;;;;;;;18.61;29.84;96000.59;10476013;28;1555;-39
2022/04/17 23:02:56;;;;;;;;;;;;;;;18.60;29.94;96003.47;10470765;28;1525;-39
2022/04/17 23:07:59;;;;;;;;;;;;;;;18.61;29.85;95989.28;10477537;28;1474;-40
2022/04/17 23:12:59;;;;;;;;;;;;;;;18.58;29.90;95985.38;10471558;28;1910;-40
2022/04/17 23:18:00;;;;;;;;;;;;;;;18.61;29.85;95978.78;10475349;28;1494;-39
2022/04/17 23:23:01;;;;;;;;;;;;;;;18.60;30.00;95972.78;10474790;28;1482;-41
2022/04/17 23:28:01;;;;;;;;;;;;;;;18.58;29.93;95968.81;10477261;28;1458;-40
2022/04/17 23:33:01;;;;;;;;;;;;;;;18.58;29.94;95971.44;10481695;28;1963;-43
2022/04/17 23:38:03;;;;;;;;;;;;;;;18.58;30.02;95966.19;10478509;28;1545;-41
2022/04/17 23:43:04;;;;;;;;;;;;;;;18.57;29.93;95967.22;10482130;28;1438;-39
2022/04/17 23:48:05;;;;;;;;;;;;;;;18.57;29.85;95969.84;10480109;28;1537;-40
2022/04/17 23:53:06;;;;;;;;;;;;;;;18.57;29.89;95965.41;10476101;28;1981;-40
2022/04/17 23:58:07;;;;;;;;;;;;;;;18.54;29.95;95955.41;10481994;28;1403;-39
